sensor_id;sensor_type;location;lat;lon;timestamp;temperature;humidity
50738;DHT22;36703;48.154;17.126;2022-12-10T00:03:22;9.20;80.20
50738;DHT22;36703;48.154;17.126;2022-12-10T00:07:24;9.10;80.00
50738;DHT22;36703;48.154;17.126;2022-12-10T00:11:26;9.10;80.10
50738;DHT22;36703;48.154;17.126;2022-12-10T00:15:28;9.10;80.10
50738;DHT22;36703;48.154;17.126;2022-12-10T00:19:29;9.10;80.00
50738;DHT22;36703;48.154;17.126;2022-12-10T00:23:31;9.00;79.80
50738;DHT22;36703;48.154;17.126;2022-12-10T00:27:33;9.00;79.80
50738;DHT22;36703;48.154;17.126;2022-12-10T00:31:36;8.90;79.70
50738;DHT22;36703;48.154;17.126;2022-12-10T00:35:38;8.80;79.50
50738;DHT22;36703;48.154;17.126;2022-12-10T00:39:40;8.80;79.50
50738;DHT22;36703;48.154;17.126;2022-12-10T00:43:42;8.70;79.30
50738;DHT22;36703;48.154;17.126;2022-12-10T00:47:45;8.80;79.30
50738;DHT22;36703;48.154;17.126;2022-12-10T00:51:47;8.70;79.10
50738;DHT22;36703;48.154;17.126;2022-12-10T00:55:49;8.60;79.10
50738;DHT22;36703;48.154;17.126;2022-12-10T00:59:51;8.60;79.10
50738;DHT22;36703;48.154;17.126;2022-12-10T01:03:55;8.60;79.00
50738;DHT22;36703;48.154;17.126;2022-12-10T01:07:58;8.40;78.80
50738;DHT22;36703;48.154;17.126;2022-12-10T01:12:02;8.50;79.10
50738;DHT22;36703;48.154;17.126;2022-12-10T01:16:06;8.40;78.80
50738;DHT22;36703;48.154;17.126;2022-12-10T01:20:09;8.40;78.90
50738;DHT22;36703;48.154;17.126;2022-12-10T01:24:11;8.40;78.80
50738;DHT22;36703;48.154;17.126;2022-12-10T01:28:13;8.40;78.80
50738;DHT22;36703;48.154;17.126;2022-12-10T01:32:14;8.40;78.80
50738;DHT22;36703;48.154;17.126;2022-12-10T01:36:25;8.40;78.80
50738;DHT22;36703;48.154;17.126;2022-12-10T01:40:28;8.40;78.70
50738;DHT22;36703;48.154;17.126;2022-12-10T01:48:35;8.50;78.80
50738;DHT22;36703;48.154;17.126;2022-12-10T01:52:38;8.50;78.70
50738;DHT22;36703;48.154;17.126;2022-12-10T01:56:45;8.50;78.50
50738;DHT22;36703;48.154;17.126;2022-12-10T02:01:19;8.50;78.50
50738;DHT22;36703;48.154;17.126;2022-12-10T02:05:37;8.50;78.50
50738;DHT22;36703;48.154;17.126;2022-12-10T02:10:02;8.40;78.20
50738;DHT22;36703;48.154;17.126;2022-12-10T02:14:37;8.60;78.30
50738;DHT22;36703;48.154;17.126;2022-12-10T02:18:59;8.30;78.20
50738;DHT22;36703;48.154;17.126;2022-12-10T02:23:18;8.30;78.10
50738;DHT22;36703;48.154;17.126;2022-12-10T02:27:31;8.30;78.00
50738;DHT22;36703;48.154;17.126;2022-12-10T02:31:39;8.30;77.90
50738;DHT22;36703;48.154;17.126;2022-12-10T02:35:48;8.30;77.90
50738;DHT22;36703;48.154;17.126;2022-12-10T02:39:53;8.40;77.70
50738;DHT22;36703;48.154;17.126;2022-12-10T02:43:58;8.30;77.50
50738;DHT22;36703;48.154;17.126;2022-12-10T02:48:03;8.30;77.50
50738;DHT22;36703;48.154;17.126;2022-12-10T02:52:14;8.20;77.30
50738;DHT22;36703;48.154;17.126;2022-12-10T02:56:51;8.10;78.00
50738;DHT22;36703;48.154;17.126;2022-12-10T03:01:12;8.10;78.30
50738;DHT22;36703;48.154;17.126;2022-12-10T03:05:27;8.10;73.00
50738;DHT22;36703;48.154;17.126;2022-12-10T03:09:53;8.00;71.50
50738;DHT22;36703;48.154;17.126;2022-12-10T03:14:22;8.10;71.20
50738;DHT22;36703;48.154;17.126;2022-12-10T03:18:27;8.10;71.10
50738;DHT22;36703;48.154;17.126;2022-12-10T03:22:32;8.20;70.80
50738;DHT22;36703;48.154;17.126;2022-12-10T03:26:34;8.20;70.40
50738;DHT22;36703;48.154;17.126;2022-12-10T03:30:37;8.10;70.20
50738;DHT22;36703;48.154;17.126;2022-12-10T03:34:41;8.10;70.30
50738;DHT22;36703;48.154;17.126;2022-12-10T03:38:44;8.10;70.30
50738;DHT22;36703;48.154;17.126;2022-12-10T03:42:45;8.10;70.20
50738;DHT22;36703;48.154;17.126;2022-12-10T03:46:47;8.00;70.00
50738;DHT22;36703;48.154;17.126;2022-12-10T03:50:48;8.00;69.90
50738;DHT22;36703;48.154;17.126;2022-12-10T03:54:50;8.00;69.30
50738;DHT22;36703;48.154;17.126;2022-12-10T03:58:51;8.00;69.20
50738;DHT22;36703;48.154;17.126;2022-12-10T04:02:53;8.00;69.10
50738;DHT22;36703;48.154;17.126;2022-12-10T04:06:55;8.00;68.90
50738;DHT22;36703;48.154;17.126;2022-12-10T04:11:05;8.10;68.80
50738;DHT22;36703;48.154;17.126;2022-12-10T04:15:07;8.00;68.50
50738;DHT22;36703;48.154;17.126;2022-12-10T04:19:28;8.00;68.60
50738;DHT22;36703;48.154;17.126;2022-12-10T04:23:30;8.00;68.50
50738;DHT22;36703;48.154;17.126;2022-12-10T04:27:50;7.90;68.20
50738;DHT22;36703;48.154;17.126;2022-12-10T04:31:53;8.00;68.20
50738;DHT22;36703;48.154;17.126;2022-12-10T04:35:55;8.00;68.30
50738;DHT22;36703;48.154;17.126;2022-12-10T04:39:57;8.00;68.20
50738;DHT22;36703;48.154;17.126;2022-12-10T04:43:58;8.00;68.00
50738;DHT22;36703;48.154;17.126;2022-12-10T04:48:00;8.00;68.20
50738;DHT22;36703;48.154;17.126;2022-12-10T04:52:02;7.90;68.30
50738;DHT22;36703;48.154;17.126;2022-12-10T04:56:05;7.90;65.30
50738;DHT22;36703;48.154;17.126;2022-12-10T05:00:07;7.90;64.20
50738;DHT22;36703;48.154;17.126;2022-12-10T05:04:12;7.90;63.30
50738;DHT22;36703;48.154;17.126;2022-12-10T05:08:15;7.80;61.60
50738;DHT22;36703;48.154;17.126;2022-12-10T05:12:16;7.80;61.30
50738;DHT22;36703;48.154;17.126;2022-12-10T05:16:18;8.00;61.20
50738;DHT22;36703;48.154;17.126;2022-12-10T05:20:21;8.00;60.80
50738;DHT22;36703;48.154;17.126;2022-12-10T05:24:22;8.00;60.70
50738;DHT22;36703;48.154;17.126;2022-12-10T05:28:24;8.00;60.60
50738;DHT22;36703;48.154;17.126;2022-12-10T05:32:26;8.00;60.50
50738;DHT22;36703;48.154;17.126;2022-12-10T05:36:30;8.00;60.60
50738;DHT22;36703;48.154;17.126;2022-12-10T05:40:36;7.90;60.30
50738;DHT22;36703;48.154;17.126;2022-12-10T05:44:38;7.80;60.40
50738;DHT22;36703;48.154;17.126;2022-12-10T05:48:40;7.70;58.50
50738;DHT22;36703;48.154;17.126;2022-12-10T05:52:42;7.70;60.30
50738;DHT22;36703;48.154;17.126;2022-12-10T05:56:43;7.70;60.80
50738;DHT22;36703;48.154;17.126;2022-12-10T06:00:44;7.80;60.60
50738;DHT22;36703;48.154;17.126;2022-12-10T06:04:46;7.70;60.40
50738;DHT22;36703;48.154;17.126;2022-12-10T06:08:48;7.80;60.40
50738;DHT22;36703;48.154;17.126;2022-12-10T06:12:50;7.80;60.00
50738;DHT22;36703;48.154;17.126;2022-12-10T06:16:51;7.70;60.20
50738;DHT22;36703;48.154;17.126;2022-12-10T06:20:53;7.80;60.10
50738;DHT22;36703;48.154;17.126;2022-12-10T06:24:54;7.80;60.00
50738;DHT22;36703;48.154;17.126;2022-12-10T06:28:56;7.80;59.90
50738;DHT22;36703;48.154;17.126;2022-12-10T06:32:57;7.90;59.80
50738;DHT22;36703;48.154;17.126;2022-12-10T06:36:59;7.90;59.60
50738;DHT22;36703;48.154;17.126;2022-12-10T06:41:05;7.90;59.50
50738;DHT22;36703;48.154;17.126;2022-12-10T06:45:10;7.90;59.30
50738;DHT22;36703;48.154;17.126;2022-12-10T06:49:12;7.90;59.60
50738;DHT22;36703;48.154;17.126;2022-12-10T06:53:14;7.90;59.60
50738;DHT22;36703;48.154;17.126;2022-12-10T06:57:15;7.90;59.50
50738;DHT22;36703;48.154;17.126;2022-12-10T07:01:20;7.90;59.30
50738;DHT22;36703;48.154;17.126;2022-12-10T07:05:23;7.90;59.10
50738;DHT22;36703;48.154;17.126;2022-12-10T07:09:25;8.20;59.50
50738;DHT22;36703;48.154;17.126;2022-12-10T07:13:26;7.70;59.50
50738;DHT22;36703;48.154;17.126;2022-12-10T07:17:28;7.70;59.60
50738;DHT22;36703;48.154;17.126;2022-12-10T07:21:33;7.70;59.50
50738;DHT22;36703;48.154;17.126;2022-12-10T07:25:36;7.60;59.50
50738;DHT22;36703;48.154;17.126;2022-12-10T07:29:37;7.60;59.60
50738;DHT22;36703;48.154;17.126;2022-12-10T07:33:39;7.60;63.50
50738;DHT22;36703;48.154;17.126;2022-12-10T07:37:40;7.70;68.40
50738;DHT22;36703;48.154;17.126;2022-12-10T07:41:43;7.60;68.00
50738;DHT22;36703;48.154;17.126;2022-12-10T07:45:46;7.60;67.50
50738;DHT22;36703;48.154;17.126;2022-12-10T07:49:47;7.60;67.10
50738;DHT22;36703;48.154;17.126;2022-12-10T07:53:51;7.70;66.80
50738;DHT22;36703;48.154;17.126;2022-12-10T07:57:54;7.70;66.50
50738;DHT22;36703;48.154;17.126;2022-12-10T08:01:55;7.80;66.60
50738;DHT22;36703;48.154;17.126;2022-12-10T08:06:04;7.90;66.20
50738;DHT22;36703;48.154;17.126;2022-12-10T08:10:10;7.80;65.90
50738;DHT22;36703;48.154;17.126;2022-12-10T08:14:12;7.80;66.20
50738;DHT22;36703;48.154;17.126;2022-12-10T08:18:13;7.80;66.20
50738;DHT22;36703;48.154;17.126;2022-12-10T08:22:15;7.90;66.10
50738;DHT22;36703;48.154;17.126;2022-12-10T08:26:20;8.00;65.70
50738;DHT22;36703;48.154;17.126;2022-12-10T08:30:23;8.00;65.40
50738;DHT22;36703;48.154;17.126;2022-12-10T08:34:24;8.00;65.20
50738;DHT22;36703;48.154;17.126;2022-12-10T08:38:26;8.10;66.10
50738;DHT22;36703;48.154;17.126;2022-12-10T08:42:28;8.00;65.00
50738;DHT22;36703;48.154;17.126;2022-12-10T08:46:29;8.00;64.60
50738;DHT22;36703;48.154;17.126;2022-12-10T08:50:32;8.00;64.20
50738;DHT22;36703;48.154;17.126;2022-12-10T08:54:34;7.80;63.90
50738;DHT22;36703;48.154;17.126;2022-12-10T08:58:36;7.70;62.90
50738;DHT22;36703;48.154;17.126;2022-12-10T09:02:39;7.70;62.50
50738;DHT22;36703;48.154;17.126;2022-12-10T09:06:41;7.80;62.30
50738;DHT22;36703;48.154;17.126;2022-12-10T09:10:42;7.90;62.00
50738;DHT22;36703;48.154;17.126;2022-12-10T09:14:44;7.90;61.40
50738;DHT22;36703;48.154;17.126;2022-12-10T09:18:46;7.80;61.10
50738;DHT22;36703;48.154;17.126;2022-12-10T09:22:48;7.80;61.20
50738;DHT22;36703;48.154;17.126;2022-12-10T09:26:50;7.80;61.00
50738;DHT22;36703;48.154;17.126;2022-12-10T09:30:58;7.80;61.10
50738;DHT22;36703;48.154;17.126;2022-12-10T09:35:01;7.80;61.10
50738;DHT22;36703;48.154;17.126;2022-12-10T09:39:02;7.90;61.00
50738;DHT22;36703;48.154;17.126;2022-12-10T09:43:26;7.90;60.70
50738;DHT22;36703;48.154;17.126;2022-12-10T09:52:01;8.00;60.60
50738;DHT22;36703;48.154;17.126;2022-12-10T09:56:05;7.90;60.30
50738;DHT22;36703;48.154;17.126;2022-12-10T10:00:45;8.00;60.70
50738;DHT22;36703;48.154;17.126;2022-12-10T10:04:40;8.10;60.40
50738;DHT22;36703;48.154;17.126;2022-12-10T10:08:42;8.00;60.20
50738;DHT22;36703;48.154;17.126;2022-12-10T10:12:47;7.90;60.30
50738;DHT22;36703;48.154;17.126;2022-12-10T10:16:53;7.90;60.30
50738;DHT22;36703;48.154;17.126;2022-12-10T10:21:24;7.90;60.40
50738;DHT22;36703;48.154;17.126;2022-12-10T10:25:27;7.90;60.20
50738;DHT22;36703;48.154;17.126;2022-12-10T10:29:30;7.90;60.20
50738;DHT22;36703;48.154;17.126;2022-12-10T10:33:48;7.90;60.10
50738;DHT22;36703;48.154;17.126;2022-12-10T10:38:00;7.90;60.30
50738;DHT22;36703;48.154;17.126;2022-12-10T10:42:09;7.90;60.20
50738;DHT22;36703;48.154;17.126;2022-12-10T10:46:16;7.90;60.10
50738;DHT22;36703;48.154;17.126;2022-12-10T10:50:24;7.80;60.20
50738;DHT22;36703;48.154;17.126;2022-12-10T10:54:46;7.80;60.40
50738;DHT22;36703;48.154;17.126;2022-12-10T11:03:29;7.80;60.50
50738;DHT22;36703;48.154;17.126;2022-12-10T11:07:33;7.80;60.40
50738;DHT22;36703;48.154;17.126;2022-12-10T11:11:40;7.80;60.40
50738;DHT22;36703;48.154;17.126;2022-12-10T11:15:42;7.70;60.30
50738;DHT22;36703;48.154;17.126;2022-12-10T11:20:22;7.70;63.30
50738;DHT22;36703;48.154;17.126;2022-12-10T11:24:25;7.60;60.60
50738;DHT22;36703;48.154;17.126;2022-12-10T11:28:59;7.60;59.80
50738;DHT22;36703;48.154;17.126;2022-12-10T11:33:24;7.50;58.90
50738;DHT22;36703;48.154;17.126;2022-12-10T11:37:38;7.50;58.70
50738;DHT22;36703;48.154;17.126;2022-12-10T11:46:33;7.50;58.60
50738;DHT22;36703;48.154;17.126;2022-12-10T11:50:47;7.60;58.50
50738;DHT22;36703;48.154;17.126;2022-12-10T11:59:26;7.50;58.30
50738;DHT22;36703;48.154;17.126;2022-12-10T12:12:59;7.40;58.20
50738;DHT22;36703;48.154;17.126;2022-12-10T12:17:06;7.40;58.20
50738;DHT22;36703;48.154;17.126;2022-12-10T12:21:27;7.40;58.20
50738;DHT22;36703;48.154;17.126;2022-12-10T12:25:34;7.40;58.20
50738;DHT22;36703;48.154;17.126;2022-12-10T12:34:26;7.40;58.10
50738;DHT22;36703;48.154;17.126;2022-12-10T12:38:59;7.40;58.10
50738;DHT22;36703;48.154;17.126;2022-12-10T12:43:10;7.50;58.10
50738;DHT22;36703;48.154;17.126;2022-12-10T12:51:59;7.60;58.00
50738;DHT22;36703;48.154;17.126;2022-12-10T13:00:45;7.90;57.70
50738;DHT22;36703;48.154;17.126;2022-12-10T13:04:48;7.90;57.50
50738;DHT22;36703;48.154;17.126;2022-12-10T13:13:33;7.80;56.80
50738;DHT22;36703;48.154;17.126;2022-12-10T13:17:37;7.80;56.80
50738;DHT22;36703;48.154;17.126;2022-12-10T13:26:29;7.70;56.80
50738;DHT22;36703;48.154;17.126;2022-12-10T13:30:35;7.70;56.90
50738;DHT22;36703;48.154;17.126;2022-12-10T13:34:38;7.70;57.00
50738;DHT22;36703;48.154;17.126;2022-12-10T13:38:42;7.70;57.00
50738;DHT22;36703;48.154;17.126;2022-12-10T13:43:28;7.70;57.00
50738;DHT22;36703;48.154;17.126;2022-12-10T13:48:28;7.80;57.00
50738;DHT22;36703;48.154;17.126;2022-12-10T13:58:08;7.70;56.80
50738;DHT22;36703;48.154;17.126;2022-12-10T14:06:17;7.70;56.90
50738;DHT22;36703;48.154;17.126;2022-12-10T14:10:32;7.60;56.90
50738;DHT22;36703;48.154;17.126;2022-12-10T14:14:38;7.60;56.90
50738;DHT22;36703;48.154;17.126;2022-12-10T14:18:47;7.70;56.90
50738;DHT22;36703;48.154;17.126;2022-12-10T14:22:55;7.70;56.80
50738;DHT22;36703;48.154;17.126;2022-12-10T14:27:24;7.70;56.70
50738;DHT22;36703;48.154;17.126;2022-12-10T14:31:31;7.70;56.80
50738;DHT22;36703;48.154;17.126;2022-12-10T14:35:53;7.70;56.70
50738;DHT22;36703;48.154;17.126;2022-12-10T14:41:30;7.60;56.90
50738;DHT22;36703;48.154;17.126;2022-12-10T15:05:36;7.50;57.30
50738;DHT22;36703;48.154;17.126;2022-12-10T15:11:10;7.40;57.10
50738;DHT22;36703;48.154;17.126;2022-12-10T15:35:01;7.40;57.80
50738;DHT22;36703;48.154;17.126;2022-12-10T15:43:27;7.40;57.80
50738;DHT22;36703;48.154;17.126;2022-12-10T15:47:33;7.40;57.80
50738;DHT22;36703;48.154;17.126;2022-12-10T15:51:39;7.00;57.40
50738;DHT22;36703;48.154;17.126;2022-12-10T15:55:40;7.40;57.60
50738;DHT22;36703;48.154;17.126;2022-12-10T15:59:43;7.50;57.60
50738;DHT22;36703;48.154;17.126;2022-12-10T16:03:45;7.80;57.70
50738;DHT22;36703;48.154;17.126;2022-12-10T16:07:50;7.50;57.50
50738;DHT22;36703;48.154;17.126;2022-12-10T16:11:57;7.40;57.50
50738;DHT22;36703;48.154;17.126;2022-12-10T16:16:08;7.50;57.70
50738;DHT22;36703;48.154;17.126;2022-12-10T16:20:26;7.50;57.60
50738;DHT22;36703;48.154;17.126;2022-12-10T16:24:29;7.50;57.60
50738;DHT22;36703;48.154;17.126;2022-12-10T16:28:31;7.50;57.60
50738;DHT22;36703;48.154;17.126;2022-12-10T16:32:34;7.50;57.60
50738;DHT22;36703;48.154;17.126;2022-12-10T16:36:35;7.50;57.70
50738;DHT22;36703;48.154;17.126;2022-12-10T16:40:38;7.60;57.70
50738;DHT22;36703;48.154;17.126;2022-12-10T16:44:41;7.60;57.60
50738;DHT22;36703;48.154;17.126;2022-12-10T16:48:42;7.60;57.50
50738;DHT22;36703;48.154;17.126;2022-12-10T16:52:44;7.60;57.60
50738;DHT22;36703;48.154;17.126;2022-12-10T16:56:46;7.60;57.50
50738;DHT22;36703;48.154;17.126;2022-12-10T17:00:48;7.70;58.20
50738;DHT22;36703;48.154;17.126;2022-12-10T17:04:51;7.70;57.50
50738;DHT22;36703;48.154;17.126;2022-12-10T17:08:52;7.60;57.40
50738;DHT22;36703;48.154;17.126;2022-12-10T17:12:54;7.60;57.50
50738;DHT22;36703;48.154;17.126;2022-12-10T17:16:58;7.60;57.60
50738;DHT22;36703;48.154;17.126;2022-12-10T17:21:00;7.60;57.70
50738;DHT22;36703;48.154;17.126;2022-12-10T17:25:02;7.60;57.50
50738;DHT22;36703;48.154;17.126;2022-12-10T17:29:08;7.60;57.50
50738;DHT22;36703;48.154;17.126;2022-12-10T17:33:15;7.50;57.40
50738;DHT22;36703;48.154;17.126;2022-12-10T17:37:19;7.50;57.40
50738;DHT22;36703;48.154;17.126;2022-12-10T17:41:21;7.50;57.50
50738;DHT22;36703;48.154;17.126;2022-12-10T17:45:23;7.50;57.70
50738;DHT22;36703;48.154;17.126;2022-12-10T17:49:24;7.40;57.80
50738;DHT22;36703;48.154;17.126;2022-12-10T17:53:26;7.40;57.70
50738;DHT22;36703;48.154;17.126;2022-12-10T17:57:28;7.40;57.70
50738;DHT22;36703;48.154;17.126;2022-12-10T18:01:30;7.40;57.90
50738;DHT22;36703;48.154;17.126;2022-12-10T18:05:32;7.40;57.90
50738;DHT22;36703;48.154;17.126;2022-12-10T18:09:34;7.50;57.80
50738;DHT22;36703;48.154;17.126;2022-12-10T18:13:35;7.40;57.90
50738;DHT22;36703;48.154;17.126;2022-12-10T18:17:37;7.30;58.30
50738;DHT22;36703;48.154;17.126;2022-12-10T18:21:40;7.30;57.70
50738;DHT22;36703;48.154;17.126;2022-12-10T18:25:44;7.30;57.80
50738;DHT22;36703;48.154;17.126;2022-12-10T18:29:47;7.80;58.50
50738;DHT22;36703;48.154;17.126;2022-12-10T18:33:52;7.60;57.80
50738;DHT22;36703;48.154;17.126;2022-12-10T18:37:55;7.00;57.60
50738;DHT22;36703;48.154;17.126;2022-12-10T18:41:57;7.00;57.70
50738;DHT22;36703;48.154;17.126;2022-12-10T18:45:59;7.00;57.60
50738;DHT22;36703;48.154;17.126;2022-12-10T18:50:00;7.00;57.70
50738;DHT22;36703;48.154;17.126;2022-12-10T18:54:01;7.10;57.80
50738;DHT22;36703;48.154;17.126;2022-12-10T18:58:03;7.10;57.70
50738;DHT22;36703;48.154;17.126;2022-12-10T19:02:05;7.10;57.60
50738;DHT22;36703;48.154;17.126;2022-12-10T19:06:18;7.00;57.50
50738;DHT22;36703;48.154;17.126;2022-12-10T19:10:24;7.10;57.60
50738;DHT22;36703;48.154;17.126;2022-12-10T19:14:26;7.10;57.60
50738;DHT22;36703;48.154;17.126;2022-12-10T19:18:28;7.00;57.40
50738;DHT22;36703;48.154;17.126;2022-12-10T19:22:34;7.00;57.40
50738;DHT22;36703;48.154;17.126;2022-12-10T19:26:37;7.00;57.40
50738;DHT22;36703;48.154;17.126;2022-12-10T19:31:12;6.90;57.30
50738;DHT22;36703;48.154;17.126;2022-12-10T22:51:39;6.60;55.40
50738;DHT22;36703;48.154;17.126;2022-12-10T22:55:41;6.70;55.40
50738;DHT22;36703;48.154;17.126;2022-12-10T22:59:42;6.60;55.40
50738;DHT22;36703;48.154;17.126;2022-12-10T23:03:44;6.70;55.60
50738;DHT22;36703;48.154;17.126;2022-12-10T23:07:46;6.70;55.50
50738;DHT22;36703;48.154;17.126;2022-12-10T23:11:48;7.00;56.10
50738;DHT22;36703;48.154;17.126;2022-12-10T23:16:18;6.70;55.30
50738;DHT22;36703;48.154;17.126;2022-12-10T23:20:19;6.70;55.40
50738;DHT22;36703;48.154;17.126;2022-12-10T23:24:21;6.70;55.40
50738;DHT22;36703;48.154;17.126;2022-12-10T23:28:23;6.70;55.40
50738;DHT22;36703;48.154;17.126;2022-12-10T23:32:24;6.70;55.40
50738;DHT22;36703;48.154;17.126;2022-12-10T23:36:26;6.70;55.50
50738;DHT22;36703;48.154;17.126;2022-12-10T23:40:27;6.70;55.50
50738;DHT22;36703;48.154;17.126;2022-12-10T23:44:29;6.70;55.40
50738;DHT22;36703;48.154;17.126;2022-12-10T23:48:30;6.70;55.40
50738;DHT22;36703;48.154;17.126;2022-12-10T23:52:32;6.70;55.40
50738;DHT22;36703;48.154;17.126;2022-12-10T23:56:34;6.70;55.50
